createdAt,value
2023-04-07T00:00:23.361Z,20.08
2023-04-07T00:02:51.756Z,25.35
2023-04-07T00:05:19.774Z,22.77
2023-04-07T00:07:55.746Z,19.48
2023-04-07T00:10:26.821Z,19.85
2023-04-07T00:12:54.561Z,18.52
2023-04-07T00:15:22.387Z,22.17
2023-04-07T00:17:50.486Z,19.38
2023-04-07T00:20:19.082Z,18.25
2023-04-07T00:22:46.915Z,19.77
2023-04-07T00:25:14.652Z,18.70
2023-04-07T00:27:43.669Z,20.02
2023-04-07T00:30:12.131Z,20.75
2023-04-07T00:32:40.062Z,20.35
2023-04-07T00:35:08.604Z,22.67
2023-04-07T00:37:37.484Z,21.23
2023-04-07T00:40:06.524Z,22.83
2023-04-07T00:42:34.711Z,20.98
2023-04-07T00:45:05.085Z,20.33
2023-04-07T00:47:33.234Z,22.13
2023-04-07T00:50:01.331Z,21.83
2023-04-07T00:52:30.088Z,23.95
2023-04-07T00:54:57.865Z,20.45
2023-04-07T00:57:26.373Z,23.50
2023-04-07T00:59:55.039Z,24.50
2023-04-07T01:02:33.425Z,20.77
2023-04-07T01:05:10.741Z,19.98
2023-04-07T01:07:57.054Z,20.33
2023-04-07T01:10:32.916Z,19.80
2023-04-07T01:14:03.742Z,21.52
2023-04-07T01:16:48.212Z,20.00
2023-04-07T01:19:35.045Z,19.00
2023-04-07T01:22:05.452Z,19.70
2023-04-07T01:24:54.312Z,17.95
2023-04-07T01:27:35.300Z,21.17
2023-04-07T01:30:05.545Z,19.35
2023-04-07T01:32:35.480Z,19.13
2023-04-07T01:35:06.231Z,20.90
2023-04-07T01:37:35.506Z,18.02
2023-04-07T01:40:04.644Z,20.55
2023-04-07T01:42:33.715Z,18.05
2023-04-07T01:45:04.477Z,19.80
2023-04-07T01:47:33.712Z,15.68
2023-04-07T01:50:04.609Z,19.30
2023-04-07T01:52:33.313Z,19.88
2023-04-07T01:55:01.642Z,18.55
2023-04-07T01:57:31.292Z,17.80
2023-04-07T02:00:07.661Z,19.42
2023-04-07T02:02:46.564Z,19.98
2023-04-07T02:05:18.091Z,18.67
2023-04-07T02:07:53.592Z,19.95
2023-04-07T02:10:24.832Z,21.48
2023-04-07T02:12:55.195Z,19.70
2023-04-07T02:15:25.547Z,20.05
2023-04-07T02:17:57.324Z,21.63
2023-04-07T02:20:26.176Z,18.30
2023-04-07T02:22:55.877Z,18.20
2023-04-07T02:25:25.825Z,20.65
2023-04-07T02:27:56.488Z,18.60
2023-04-07T02:30:27.429Z,20.20
2023-04-07T02:32:55.437Z,22.65
2023-04-07T02:35:23.884Z,19.25
2023-04-07T02:37:52.354Z,19.30
2023-04-07T02:40:20.105Z,20.92
2023-04-07T02:42:48.294Z,19.40
2023-04-07T02:45:16.097Z,21.05
2023-04-07T02:47:45.828Z,22.58
2023-04-07T02:50:13.604Z,19.08
2023-04-07T02:52:41.968Z,19.40
2023-04-07T02:55:13.568Z,20.30
2023-04-07T02:57:41.829Z,18.83
2023-04-07T03:00:17.445Z,20.58
2023-04-07T03:03:02.630Z,21.42
2023-04-07T03:05:33.863Z,19.52
2023-04-07T03:08:03.202Z,20.83
2023-04-07T03:10:31.164Z,20.33
2023-04-07T03:12:58.881Z,23.63
2023-04-07T03:15:27.180Z,20.80
2023-04-07T03:17:55.144Z,20.05
2023-04-07T03:20:24.990Z,21.20
2023-04-07T03:22:52.687Z,18.55
2023-04-07T03:25:27.398Z,20.42
2023-04-07T03:27:56.116Z,20.60
2023-04-07T03:30:27.524Z,21.83
2023-04-07T03:32:55.321Z,19.60
2023-04-07T03:35:24.766Z,18.85
2023-04-07T03:37:52.754Z,20.50
2023-04-07T03:40:21.879Z,19.17
2023-04-07T03:42:50.151Z,20.08
2023-04-07T03:45:18.584Z,20.63
2023-04-07T03:47:51.706Z,22.27
2023-04-07T03:50:19.691Z,19.77
2023-04-07T03:53:10.570Z,20.05
2023-04-07T03:55:38.772Z,17.67
2023-04-07T03:58:14.939Z,19.58
2023-04-07T04:00:43.968Z,19.88
2023-04-07T04:03:13.527Z,19.88
2023-04-07T04:05:58.274Z,19.23
2023-04-07T04:08:32.096Z,20.15
2023-04-07T04:10:59.865Z,18.83
2023-04-07T04:13:34.823Z,22.17
2023-04-07T04:16:06.146Z,20.75
2023-04-07T04:18:35.422Z,21.25
2023-04-07T04:21:03.471Z,21.25
2023-04-07T04:23:34.824Z,22.25
2023-04-07T04:26:04.946Z,23.70
2023-04-07T04:28:34.440Z,20.40
2023-04-07T04:31:04.085Z,22.10
2023-04-07T04:33:37.514Z,21.35
2023-04-07T04:36:06.057Z,22.67
2023-04-07T04:38:35.631Z,21.65
2023-04-07T04:41:14.302Z,20.92
2023-04-07T04:43:42.571Z,20.77
2023-04-07T04:46:12.688Z,24.35
2023-04-07T04:48:44.557Z,22.52
2023-04-07T04:51:12.490Z,22.52
2023-04-07T04:53:43.688Z,20.10
2023-04-07T04:56:11.563Z,20.38
2023-04-07T04:58:46.281Z,21.50
2023-04-07T05:01:20.392Z,21.70
2023-04-07T05:03:55.025Z,20.98
2023-04-07T05:06:27.593Z,21.08
2023-04-07T05:09:00.890Z,21.67
2023-04-07T05:11:34.074Z,22.58
2023-04-07T05:14:01.791Z,19.02
2023-04-07T05:16:29.918Z,22.38
2023-04-07T05:18:59.158Z,23.67
2023-04-07T05:21:28.377Z,20.30
2023-04-07T05:24:01.399Z,22.52
2023-04-07T05:26:31.194Z,22.02
2023-04-07T05:28:59.732Z,23.67
2023-04-07T05:31:27.461Z,22.80
2023-04-07T05:33:58.523Z,22.58
2023-04-07T05:36:31.458Z,21.38
2023-04-07T05:38:59.200Z,19.95
2023-04-07T05:41:29.419Z,22.20
2023-04-07T05:43:57.819Z,21.77
2023-04-07T05:46:27.388Z,20.73
2023-04-07T05:48:59.201Z,21.85
2023-04-07T05:51:31.459Z,21.95
2023-04-07T05:54:03.770Z,20.90
2023-04-07T05:56:34.033Z,21.48
2023-04-07T05:59:02.304Z,21.05
2023-04-07T06:01:30.498Z,19.90
2023-04-07T06:03:59.695Z,21.15
2023-04-07T06:06:28.690Z,19.95
2023-04-07T06:08:56.480Z,22.08
2023-04-07T06:11:25.662Z,19.98
2023-04-07T06:13:55.502Z,23.38
2023-04-07T06:16:23.176Z,22.27
2023-04-07T06:18:51.606Z,23.30
2023-04-07T06:21:19.374Z,23.45
2023-04-07T06:23:48.056Z,19.77
2023-04-07T06:26:15.965Z,24.10
2023-04-07T06:28:43.884Z,20.15
2023-04-07T06:31:13.169Z,23.45
2023-04-07T06:33:41.123Z,21.83
2023-04-07T06:36:09.218Z,17.83
2023-04-07T06:38:37.194Z,21.05
2023-04-07T06:41:05.456Z,19.63
2023-04-07T06:43:33.440Z,18.45
2023-04-07T06:46:04.281Z,18.98
2023-04-07T06:48:33.699Z,21.30
2023-04-07T06:51:05.344Z,19.50
2023-04-07T06:53:33.366Z,19.23
2023-04-07T06:56:06.253Z,16.05
2023-04-07T06:58:34.329Z,17.52
2023-04-07T07:01:02.710Z,18.75
2023-04-07T07:03:31.587Z,19.42
2023-04-07T07:06:01.064Z,20.65
2023-04-07T07:08:29.763Z,18.65
2023-04-07T07:10:57.893Z,19.80
2023-04-07T07:13:27.205Z,16.42
2023-04-07T07:15:55.540Z,18.05
2023-04-07T07:18:23.529Z,19.95
2023-04-07T07:20:51.658Z,16.48
2023-04-07T07:23:21.227Z,16.90
2023-04-07T07:25:48.949Z,16.13
2023-04-07T07:28:16.665Z,15.57
2023-04-07T07:30:44.349Z,14.70
2023-04-07T07:33:12.140Z,15.73
2023-04-07T07:35:40.540Z,16.20
2023-04-07T07:38:08.927Z,17.30
2023-04-07T07:40:37.928Z,15.45
2023-04-07T07:43:06.191Z,15.48
2023-04-07T07:45:34.362Z,17.23
2023-04-07T07:48:02.513Z,16.13
2023-04-07T07:50:30.943Z,13.77
2023-04-07T07:52:58.817Z,16.85
2023-04-07T07:55:26.580Z,13.43
2023-04-07T07:57:56.514Z,14.52
2023-04-07T08:00:25.049Z,14.02
2023-04-07T08:02:53.168Z,14.82
2023-04-07T08:05:22.264Z,13.95
2023-04-07T08:07:52.705Z,15.65
2023-04-07T08:10:21.785Z,14.43
2023-04-07T08:12:49.689Z,14.10
2023-04-07T08:15:18.788Z,13.93
2023-04-07T08:17:46.493Z,15.48
2023-04-07T08:20:15.277Z,15.48
2023-04-07T08:22:43.679Z,14.25
2023-04-07T08:25:12.231Z,13.90
2023-04-07T08:27:40.258Z,14.52
2023-04-07T08:30:09.342Z,13.95
2023-04-07T08:32:40.595Z,13.75
2023-04-07T08:35:09.142Z,13.18
2023-04-07T08:37:38.360Z,12.25
2023-04-07T08:40:07.189Z,13.48
2023-04-07T08:42:36.890Z,13.52
2023-04-07T08:45:06.366Z,13.25
2023-04-07T08:47:36.455Z,10.00
2023-04-07T08:50:07.977Z,8.45
2023-04-07T08:52:41.197Z,7.50
2023-04-07T08:55:11.041Z,5.25
2023-04-07T08:57:39.155Z,5.05
2023-04-07T09:00:08.123Z,4.47
2023-04-07T09:02:37.542Z,3.30
2023-04-07T09:05:09.219Z,3.55
2023-04-07T09:07:37.872Z,3.20
2023-04-07T09:10:07.379Z,3.42
2023-04-07T09:12:35.836Z,3.90
2023-04-07T09:15:03.858Z,4.38
2023-04-07T09:17:31.807Z,5.05
2023-04-07T09:20:02.012Z,5.13
2023-04-07T09:22:39.057Z,4.00
2023-04-07T09:25:15.016Z,3.95
2023-04-07T09:27:42.961Z,4.75
2023-04-07T09:30:16.022Z,7.35
2023-04-07T09:32:43.778Z,7.95
2023-04-07T09:35:11.588Z,6.22
2023-04-07T09:37:40.611Z,6.05
2023-04-07T09:40:10.294Z,6.38
2023-04-07T09:42:46.251Z,7.82
2023-04-07T09:45:23.816Z,5.90
2023-04-07T09:47:59.234Z,5.28
2023-04-07T09:50:35.195Z,5.68
2023-04-07T09:53:05.147Z,5.13
2023-04-07T09:55:33.859Z,4.95
2023-04-07T09:58:02.634Z,5.07
2023-04-07T10:00:30.715Z,4.70
2023-04-07T10:02:59.946Z,4.22
2023-04-07T10:05:28.933Z,4.57
2023-04-07T10:07:57.258Z,4.60
2023-04-07T10:10:28.907Z,6.70
2023-04-07T10:12:58.361Z,4.32
2023-04-07T10:15:26.628Z,3.97
2023-04-07T10:17:56.858Z,4.60
2023-04-07T10:20:25.367Z,4.88
2023-04-07T10:22:56.946Z,4.13
2023-04-07T10:25:27.164Z,4.30
2023-04-07T10:28:00.776Z,4.22
2023-04-07T10:30:31.663Z,4.50
2023-04-07T10:33:00.353Z,5.53
2023-04-07T10:35:28.567Z,5.28
2023-04-07T10:38:15.111Z,4.60
2023-04-07T10:40:44.622Z,5.13
2023-04-07T10:43:13.667Z,5.22
2023-04-07T10:46:02.339Z,5.05
2023-04-07T10:48:33.142Z,5.63
2023-04-07T10:51:18.880Z,5.13
2023-04-07T10:54:22.535Z,4.82
2023-04-07T10:57:14.826Z,5.60
2023-04-07T11:00:04.589Z,6.10
2023-04-07T11:02:36.585Z,5.38
2023-04-07T11:05:05.515Z,5.43
2023-04-07T11:07:51.221Z,5.25
2023-04-07T11:10:21.973Z,5.38
2023-04-07T11:13:11.477Z,5.22
2023-04-07T11:15:41.050Z,5.57
2023-04-07T11:18:14.904Z,5.93
2023-04-07T11:20:46.078Z,6.05
2023-04-07T11:23:14.879Z,6.03
2023-04-07T11:25:46.022Z,5.93
2023-04-07T11:28:16.808Z,4.95
2023-04-07T11:30:51.683Z,6.82
2023-04-07T11:33:21.076Z,5.35
2023-04-07T11:35:55.740Z,6.70
2023-04-07T11:38:25.720Z,6.28
2023-04-07T11:40:54.617Z,6.35
2023-04-07T11:43:27.162Z,7.95
2023-04-07T11:46:06.342Z,6.80
2023-04-07T11:48:37.525Z,6.70
2023-04-07T11:51:06.748Z,6.88
2023-04-07T11:53:38.596Z,7.93
2023-04-07T11:56:10.843Z,7.30
2023-04-07T11:58:47.935Z,7.22
2023-04-07T12:01:19.541Z,7.38
2023-04-07T12:03:58.920Z,6.38
2023-04-07T12:06:35.243Z,7.60
2023-04-07T12:09:05.221Z,7.10
2023-04-07T12:11:36.025Z,6.57
2023-04-07T12:14:06.853Z,7.93
2023-04-07T12:16:39.554Z,6.57
2023-04-07T12:19:07.908Z,6.30
2023-04-07T12:21:35.792Z,6.20
2023-04-07T12:24:03.628Z,7.32
2023-04-07T12:26:31.957Z,8.15
2023-04-07T12:29:05.017Z,6.50
2023-04-07T12:31:34.674Z,6.60
2023-04-07T12:34:02.392Z,7.97
2023-04-07T12:36:30.194Z,7.13
2023-04-07T12:38:59.100Z,6.93
2023-04-07T12:41:27.686Z,6.32
2023-04-07T12:43:55.465Z,8.23
2023-04-07T12:46:23.259Z,9.15
2023-04-07T12:48:52.614Z,5.82
2023-04-07T12:51:20.517Z,6.00
2023-04-07T12:53:48.453Z,7.25
2023-04-07T12:56:16.293Z,6.60
2023-04-07T12:58:44.104Z,9.18
2023-04-07T13:01:12.037Z,6.00
2023-04-07T13:03:40.069Z,7.38
2023-04-07T13:06:10.857Z,6.72
2023-04-07T13:08:38.856Z,8.13
2023-04-07T13:11:06.660Z,7.10
2023-04-07T13:13:35.010Z,6.30
2023-04-07T13:16:02.801Z,5.72
2023-04-07T13:18:31.214Z,6.75
2023-04-07T13:21:30.631Z,5.25
2023-04-07T13:23:50.498Z,5.13
2023-04-07T13:26:18.723Z,5.38
2023-04-07T13:28:47.792Z,5.00
2023-04-07T13:31:16.330Z,3.50
2023-04-07T13:33:44.300Z,2.75
2023-04-07T13:36:12.030Z,2.50
2023-04-07T13:38:41.987Z,3.47
2023-04-07T13:41:12.252Z,3.00
2023-04-07T13:43:40.230Z,2.83
2023-04-07T13:46:17.083Z,3.70
2023-04-07T13:48:53.115Z,3.88
2023-04-07T13:51:21.374Z,3.33
2023-04-07T13:53:49.797Z,3.83
2023-04-07T13:56:19.354Z,5.15
2023-04-07T13:58:48.038Z,5.45
2023-04-07T14:01:16.087Z,5.72
2023-04-07T14:03:44.156Z,5.80
2023-04-07T14:06:11.965Z,6.50
2023-04-07T14:08:40.035Z,6.70
2023-04-07T14:11:07.740Z,6.20
2023-04-07T14:13:38.229Z,6.28
2023-04-07T14:16:07.974Z,5.95
2023-04-07T14:18:35.812Z,7.30
2023-04-07T14:21:03.595Z,6.80
2023-04-07T14:23:37.124Z,6.57
2023-04-07T14:26:18.965Z,6.20
2023-04-07T14:28:48.657Z,6.13
2023-04-07T14:31:17.955Z,6.20
2023-04-07T14:33:46.691Z,6.35
2023-04-07T14:36:15.721Z,5.78
2023-04-07T14:38:44.331Z,8.00
2023-04-07T14:41:13.020Z,5.53
2023-04-07T14:43:41.388Z,3.75
2023-04-07T14:46:12.284Z,4.68
2023-04-07T14:48:40.118Z,6.50
2023-04-07T14:51:12.796Z,4.40
2023-04-07T14:53:41.804Z,5.47
2023-04-07T14:56:10.662Z,4.72
2023-04-07T14:58:39.116Z,4.65
2023-04-07T15:01:07.468Z,5.20
2023-04-07T15:03:37.089Z,4.30
2023-04-07T15:06:08.359Z,4.53
2023-04-07T15:08:36.057Z,4.43
2023-04-07T15:11:05.624Z,6.22
2023-04-07T15:13:33.381Z,4.07
2023-04-07T15:16:07.553Z,4.85
2023-04-07T15:18:37.140Z,4.25
2023-04-07T15:21:06.005Z,4.95
2023-04-07T15:23:34.529Z,4.70
2023-04-07T15:26:03.012Z,4.65
2023-04-07T15:28:31.186Z,5.07
2023-04-07T15:31:01.050Z,4.22
2023-04-07T15:33:29.246Z,4.68
2023-04-07T15:35:59.901Z,4.57
2023-04-07T15:38:29.659Z,3.85
2023-04-07T15:40:58.723Z,5.55
2023-04-07T15:43:27.155Z,4.72
2023-04-07T15:45:56.197Z,5.88
2023-04-07T15:48:24.226Z,6.32
2023-04-07T15:50:52.374Z,4.97
2023-04-07T15:53:21.899Z,5.38
2023-04-07T15:55:50.735Z,6.63
2023-04-07T15:58:18.784Z,4.25
2023-04-07T16:00:46.964Z,4.05
2023-04-07T16:03:15.757Z,4.13
2023-04-07T16:05:44.092Z,4.97
2023-04-07T16:08:13.878Z,4.95
2023-04-07T16:10:43.239Z,5.32
2023-04-07T16:13:12.214Z,4.35
2023-04-07T16:15:41.661Z,4.65
2023-04-07T16:18:10.982Z,5.53
2023-04-07T16:20:39.650Z,6.45
2023-04-07T16:23:07.359Z,4.88
2023-04-07T16:25:35.237Z,5.25
2023-04-07T16:28:04.479Z,5.05
2023-04-07T16:30:32.308Z,3.67
2023-04-07T16:33:00.563Z,4.85
2023-04-07T16:35:29.134Z,4.90
2023-04-07T16:38:01.456Z,4.28
2023-04-07T16:40:29.206Z,4.80
2023-04-07T16:42:56.913Z,4.82
2023-04-07T16:45:25.991Z,4.40
2023-04-07T16:47:53.994Z,4.72
2023-04-07T16:50:21.910Z,5.82
2023-04-07T16:52:49.698Z,5.00
2023-04-07T16:55:17.469Z,4.50
2023-04-07T16:57:45.312Z,5.00
2023-04-07T17:00:15.032Z,8.10
2023-04-07T17:02:44.165Z,4.70
2023-04-07T17:05:11.997Z,4.68
2023-04-07T17:07:40.637Z,5.63
2023-04-07T17:10:09.497Z,8.45
2023-04-07T17:12:37.208Z,7.07
2023-04-07T17:15:05.481Z,2.58
2023-04-07T17:17:33.319Z,1.92
2023-04-07T17:20:03.370Z,2.60
2023-04-07T17:22:31.149Z,2.40
2023-04-07T17:24:58.786Z,2.28
2023-04-07T17:27:26.496Z,2.22
2023-04-07T17:29:54.658Z,5.03
2023-04-07T17:32:23.074Z,3.42
2023-04-07T17:34:51.098Z,3.33
2023-04-07T17:37:20.715Z,4.38
2023-04-07T17:39:49.293Z,2.25
2023-04-07T17:42:17.266Z,2.28
2023-04-07T17:44:45.510Z,1.95
2023-04-07T17:47:13.428Z,3.17
2023-04-07T17:49:42.275Z,3.20
2023-04-07T17:52:10.200Z,3.58
2023-04-07T17:54:39.424Z,3.75
2023-04-07T17:57:08.330Z,4.82
2023-04-07T17:59:36.325Z,5.72
2023-04-07T18:02:09.033Z,3.80
2023-04-07T18:04:37.856Z,3.70
2023-04-07T18:07:06.344Z,3.88
2023-04-07T18:09:34.731Z,4.30
2023-04-07T18:12:04.008Z,4.53
2023-04-07T18:14:31.941Z,4.93
2023-04-07T18:17:00.509Z,3.90
2023-04-07T18:19:30.002Z,4.70
2023-04-07T18:21:59.804Z,4.25
2023-04-07T18:24:28.172Z,5.10
2023-04-07T18:26:56.937Z,4.63
2023-04-07T18:29:27.218Z,3.75
2023-04-07T18:31:56.027Z,4.30
2023-04-07T18:34:26.024Z,3.85
2023-04-07T18:36:54.001Z,4.30
2023-04-07T18:39:22.123Z,3.80
2023-04-07T18:41:50.894Z,3.35
2023-04-07T18:44:18.695Z,3.97
2023-04-07T18:46:48.439Z,5.05
2023-04-07T18:49:17.347Z,4.22
2023-04-07T18:51:46.961Z,5.40
2023-04-07T18:54:15.393Z,4.60
2023-04-07T18:56:43.418Z,3.70
2023-04-07T18:59:11.370Z,4.05
2023-04-07T19:01:40.324Z,4.00
2023-04-07T19:04:10.058Z,3.38
2023-04-07T19:06:38.207Z,4.05
2023-04-07T19:09:06.312Z,3.08
2023-04-07T19:11:35.726Z,3.80
2023-04-07T19:14:04.789Z,4.03
2023-04-07T19:16:33.062Z,3.17
2023-04-07T19:19:01.229Z,3.17
2023-04-07T19:21:31.024Z,4.47
2023-04-07T19:23:59.784Z,3.30
2023-04-07T19:26:29.530Z,4.25
2023-04-07T19:28:58.112Z,4.25
2023-04-07T19:31:26.389Z,4.03
2023-04-07T19:33:54.450Z,4.43
2023-04-07T19:36:22.294Z,4.32
2023-04-07T19:38:51.797Z,5.07
2023-04-07T19:41:20.187Z,5.95
2023-04-07T19:43:48.187Z,5.25
2023-04-07T19:46:16.897Z,4.30
2023-04-07T19:48:44.740Z,4.55
2023-04-07T19:51:12.856Z,5.15
2023-04-07T19:53:40.710Z,4.45
2023-04-07T19:56:11.098Z,5.50
2023-04-07T19:58:39.249Z,5.25
2023-04-07T20:01:07.629Z,4.90
2023-04-07T20:03:36.704Z,5.10
2023-04-07T20:06:06.540Z,5.07
2023-04-07T20:08:34.312Z,6.07
2023-04-07T20:11:02.523Z,5.60
2023-04-07T20:13:35.028Z,5.95
2023-04-07T20:16:02.912Z,6.18
2023-04-07T20:18:32.142Z,6.68
2023-04-07T20:21:00.854Z,5.30
2023-04-07T20:23:29.245Z,5.18
2023-04-07T20:25:57.306Z,6.68
2023-04-07T20:28:25.461Z,6.32
2023-04-07T20:30:55.275Z,6.10
2023-04-07T20:33:23.339Z,5.88
2023-04-07T20:35:52.524Z,6.03
2023-04-07T20:38:22.291Z,6.68
2023-04-07T20:40:50.198Z,6.10
2023-04-07T20:43:20.728Z,6.30
2023-04-07T20:45:48.955Z,6.97
2023-04-07T20:48:23.845Z,6.78
2023-04-07T20:50:52.028Z,7.28
2023-04-07T20:53:19.903Z,6.13
2023-04-07T20:55:48.307Z,6.28
2023-04-07T20:58:17.696Z,6.45
2023-04-07T21:00:46.006Z,6.30
2023-04-07T21:03:17.345Z,7.88
2023-04-07T21:05:48.232Z,7.75
2023-04-07T21:08:16.172Z,6.88
2023-04-07T21:10:43.991Z,8.35
2023-04-07T21:13:11.892Z,7.85
2023-04-07T21:15:42.223Z,6.75
2023-04-07T21:18:10.680Z,7.43
2023-04-07T21:20:38.793Z,6.97
2023-04-07T21:23:08.717Z,7.78
2023-04-07T21:25:38.127Z,7.45
2023-04-07T21:28:06.293Z,9.02
2023-04-07T21:30:34.243Z,9.73
2023-04-07T21:33:02.621Z,8.73
2023-04-07T21:35:30.920Z,8.35
2023-04-07T21:37:58.866Z,8.57
2023-04-07T21:40:29.666Z,8.32
2023-04-07T21:42:57.615Z,9.23
2023-04-07T21:45:25.695Z,8.57
2023-04-07T21:47:53.828Z,7.88
2023-04-07T21:50:22.285Z,8.52
2023-04-07T21:52:51.443Z,9.35
2023-04-07T21:55:21.207Z,9.35
2023-04-07T21:57:51.551Z,9.90
2023-04-07T22:00:19.671Z,8.68
2023-04-07T22:02:47.795Z,9.48
2023-04-07T22:05:16.042Z,8.77
2023-04-07T22:07:45.342Z,8.88
2023-04-07T22:10:13.227Z,10.48
2023-04-07T22:12:41.085Z,10.40
2023-04-07T22:15:13.067Z,11.35
2023-04-07T22:17:41.640Z,9.32
2023-04-07T22:20:11.438Z,9.30
2023-04-07T22:22:39.470Z,9.77
2023-04-07T22:25:08.300Z,9.63
2023-04-07T22:27:36.317Z,9.30
2023-04-07T22:30:05.905Z,10.65
2023-04-07T22:32:35.398Z,10.93
2023-04-07T22:35:03.329Z,10.15
2023-04-07T22:37:31.324Z,8.73
2023-04-07T22:39:58.975Z,10.02
2023-04-07T22:42:26.643Z,9.45
2023-04-07T22:44:54.386Z,11.18
2023-04-07T22:47:22.658Z,10.63
2023-04-07T22:49:51.939Z,10.63
2023-04-07T22:52:20.159Z,8.05
2023-04-07T22:54:48.119Z,10.45
2023-04-07T22:57:15.940Z,10.23
2023-04-07T22:59:43.583Z,10.15
2023-04-07T23:02:11.598Z,10.27
2023-04-07T23:04:39.326Z,11.02
2023-04-07T23:07:08.918Z,11.65
2023-04-07T23:09:36.674Z,11.18
2023-04-07T23:12:04.408Z,13.57
2023-04-07T23:14:32.337Z,12.68
2023-04-07T23:17:01.107Z,13.45
2023-04-07T23:19:29.199Z,13.77
2023-04-07T23:21:56.913Z,13.25
2023-04-07T23:24:26.328Z,14.80
2023-04-07T23:26:54.688Z,15.05
2023-04-07T23:29:23.490Z,15.18
2023-04-07T23:31:52.873Z,15.88
2023-04-07T23:34:21.728Z,14.43
2023-04-07T23:36:49.381Z,13.82
2023-04-07T23:39:17.126Z,17.02
2023-04-07T23:41:46.213Z,14.57
2023-04-07T23:44:14.764Z,15.25
2023-04-07T23:46:42.702Z,15.27
2023-04-07T23:49:10.700Z,17.45
2023-04-07T23:51:39.415Z,14.23
2023-04-07T23:54:07.313Z,16.35
2023-04-07T23:56:35.091Z,14.82
2023-04-07T23:59:04.346Z,16.00
